createdAt,value
2022-12-14T00:01:37.556Z,40.73
2022-12-14T00:04:04.987Z,33.73
2022-12-14T00:06:33.561Z,35.33
2022-12-14T00:09:04.751Z,32.77
2022-12-14T00:11:33.965Z,37.00
2022-12-14T00:14:04.177Z,35.07
2022-12-14T00:16:34.216Z,35.83
2022-12-14T00:19:02.961Z,38.50
2022-12-14T00:21:30.043Z,33.97
2022-12-14T00:23:59.534Z,33.17
2022-12-14T00:26:31.117Z,33.37
2022-12-14T00:29:01.024Z,35.33
2022-12-14T00:31:29.361Z,38.37
2022-12-14T00:33:56.365Z,34.60
2022-12-14T00:36:24.304Z,33.73
2022-12-14T00:38:51.246Z,35.70
2022-12-14T00:41:18.298Z,36.30
2022-12-14T00:43:49.342Z,38.43
2022-12-14T00:46:17.284Z,34.90
2022-12-14T00:48:44.614Z,37.97
2022-12-14T00:51:14.867Z,32.43
2022-12-14T00:53:44.585Z,35.30
2022-12-14T00:56:12.492Z,32.73
2022-12-14T00:58:39.576Z,35.47
2022-12-14T01:01:13.352Z,33.10
2022-12-14T01:03:40.617Z,30.43
2022-12-14T01:06:14.728Z,31.77
2022-12-14T01:08:41.735Z,34.20
2022-12-14T01:11:10.122Z,32.07
2022-12-14T01:13:38.893Z,32.77
2022-12-14T01:16:12.724Z,38.00
2022-12-14T01:18:42.621Z,32.57
2022-12-14T01:21:17.898Z,34.27
2022-12-14T01:23:46.821Z,36.57
2022-12-14T01:26:16.348Z,35.40
2022-12-14T01:28:43.987Z,32.90
2022-12-14T01:31:16.556Z,31.53
2022-12-14T01:33:44.715Z,31.30
2022-12-14T01:36:15.065Z,32.20
2022-12-14T01:38:42.110Z,29.13
2022-12-14T01:41:20.630Z,31.07
2022-12-14T01:43:51.189Z,33.77
2022-12-14T01:46:28.149Z,35.00
2022-12-14T01:49:02.195Z,29.40
2022-12-14T01:51:32.471Z,32.17
2022-12-14T01:54:05.136Z,29.40
2022-12-14T01:56:41.154Z,31.67
2022-12-14T01:59:14.727Z,29.93
2022-12-14T02:01:43.649Z,28.03
2022-12-14T02:04:16.530Z,32.60
2022-12-14T02:06:48.903Z,35.40
2022-12-14T02:09:22.281Z,33.70
2022-12-14T02:12:02.220Z,30.80
2022-12-14T02:14:30.424Z,30.73
2022-12-14T02:16:58.827Z,26.73
2022-12-14T02:19:25.930Z,30.17
2022-12-14T02:22:18.942Z,27.80
2022-12-14T02:25:24.545Z,29.90
2022-12-14T02:28:27.532Z,31.33
2022-12-14T02:31:06.082Z,28.70
2022-12-14T02:33:49.493Z,30.80
2022-12-14T02:36:29.522Z,29.77
2022-12-14T02:39:14.943Z,29.73
2022-12-14T02:41:54.386Z,30.23
2022-12-14T02:44:34.770Z,27.97
2022-12-14T02:47:14.862Z,31.03
2022-12-14T02:50:02.204Z,29.30
2022-12-14T02:52:41.538Z,29.00
2022-12-14T02:55:18.344Z,26.57
2022-12-14T02:57:53.301Z,26.63
2022-12-14T03:00:20.806Z,32.10
2022-12-14T03:02:51.307Z,26.83
2022-12-14T03:05:18.664Z,24.93
2022-12-14T03:07:53.007Z,27.40
2022-12-14T03:10:36.298Z,30.03
2022-12-14T03:13:15.326Z,27.97
2022-12-14T03:15:46.611Z,27.63
2022-12-14T03:18:21.297Z,25.37
2022-12-14T03:20:54.195Z,27.27
2022-12-14T03:23:30.539Z,29.50
2022-12-14T03:26:09.548Z,27.80
2022-12-14T03:28:45.516Z,28.63
2022-12-14T03:31:20.598Z,29.70
2022-12-14T03:33:54.575Z,26.33
2022-12-14T03:36:30.473Z,28.03
2022-12-14T03:39:02.854Z,27.73
2022-12-14T03:41:37.933Z,24.47
2022-12-14T03:44:23.703Z,24.57
2022-12-14T03:46:58.174Z,25.27
2022-12-14T03:49:48.910Z,27.90
2022-12-14T03:52:26.584Z,24.67
2022-12-14T03:55:06.737Z,23.97
2022-12-14T03:57:50.211Z,27.67
2022-12-14T04:00:22.471Z,26.67
2022-12-14T04:03:00.929Z,28.23
2022-12-14T04:05:44.088Z,23.10
2022-12-14T04:08:30.397Z,23.17
2022-12-14T04:11:23.516Z,27.87
2022-12-14T04:14:17.917Z,23.07
2022-12-14T04:17:08.892Z,27.20
2022-12-14T04:19:44.209Z,25.13
2022-12-14T04:22:25.615Z,24.27
2022-12-14T04:25:17.418Z,28.37
2022-12-14T04:27:51.926Z,21.63
2022-12-14T04:30:19.444Z,24.17
2022-12-14T04:32:51.861Z,20.87
2022-12-14T04:35:25.603Z,24.53
2022-12-14T04:38:01.115Z,24.17
2022-12-14T04:40:33.659Z,23.13
2022-12-14T04:43:09.947Z,23.33
2022-12-14T04:45:43.935Z,22.73
2022-12-14T04:48:24.435Z,25.50
2022-12-14T04:50:59.879Z,28.70
2022-12-14T04:53:34.765Z,23.67
2022-12-14T04:56:10.992Z,21.33
2022-12-14T04:58:40.682Z,23.60
2022-12-14T05:01:32.811Z,22.53
2022-12-14T05:04:13.857Z,21.30
2022-12-14T05:06:55.044Z,24.33
2022-12-14T05:09:29.390Z,26.37
2022-12-14T05:12:07.211Z,23.43
2022-12-14T05:14:42.169Z,25.33
2022-12-14T05:17:09.941Z,24.70
2022-12-14T05:19:43.944Z,23.87
2022-12-14T05:22:17.850Z,23.03
2022-12-14T05:24:46.232Z,25.97
2022-12-14T05:27:13.309Z,22.00
2022-12-14T05:29:40.302Z,23.37
2022-12-14T05:32:10.955Z,23.87
2022-12-14T05:34:38.258Z,23.13
2022-12-14T05:37:05.309Z,26.80
2022-12-14T05:39:34.970Z,24.63
2022-12-14T05:42:03.524Z,25.50
2022-12-14T05:44:32.005Z,21.27
2022-12-14T05:46:59.408Z,20.47
2022-12-14T05:49:26.451Z,23.20
2022-12-14T05:51:53.468Z,19.67
2022-12-14T05:54:20.519Z,22.13
2022-12-14T05:56:47.541Z,20.70
2022-12-14T05:59:16.668Z,24.07
2022-12-14T06:01:44.803Z,26.53
2022-12-14T06:04:17.871Z,21.40
2022-12-14T06:06:45.648Z,20.80
2022-12-14T06:09:15.989Z,22.33
2022-12-14T06:11:45.220Z,24.00
2022-12-14T06:14:13.360Z,21.47
2022-12-14T06:16:44.059Z,23.20
2022-12-14T06:19:13.212Z,23.03
2022-12-14T06:21:43.130Z,19.47
2022-12-14T06:24:12.124Z,23.27
2022-12-14T06:26:42.837Z,21.10
2022-12-14T06:29:16.091Z,26.27
2022-12-14T06:31:45.698Z,22.93
2022-12-14T06:34:17.659Z,25.23
2022-12-14T06:36:46.733Z,23.07
2022-12-14T06:39:17.085Z,20.03
2022-12-14T06:41:44.577Z,23.20
2022-12-14T06:44:14.125Z,23.33
2022-12-14T06:46:42.342Z,24.60
2022-12-14T06:49:15.776Z,24.57
2022-12-14T06:51:43.778Z,23.93
2022-12-14T06:54:12.340Z,22.43
2022-12-14T06:56:40.794Z,24.33
2022-12-14T06:59:08.844Z,23.13
2022-12-14T07:01:37.419Z,21.23
2022-12-14T07:04:05.840Z,22.37
2022-12-14T07:06:37.863Z,22.13
2022-12-14T07:09:07.354Z,19.67
2022-12-14T07:11:34.457Z,20.67
2022-12-14T07:14:05.827Z,23.00
2022-12-14T07:16:34.816Z,23.77
2022-12-14T07:19:01.933Z,21.17
2022-12-14T07:21:29.334Z,20.63
2022-12-14T07:24:04.052Z,22.07
2022-12-14T07:26:31.460Z,21.47
2022-12-14T07:29:02.639Z,24.10
2022-12-14T07:31:30.022Z,22.50
2022-12-14T07:34:00.072Z,26.87
2022-12-14T07:36:29.746Z,23.27
2022-12-14T07:38:58.303Z,21.37
2022-12-14T07:41:29.338Z,26.40
2022-12-14T07:43:57.951Z,22.10
2022-12-14T07:46:27.958Z,21.47
2022-12-14T07:48:58.547Z,24.83
2022-12-14T07:51:29.559Z,22.33
2022-12-14T07:53:59.888Z,21.13
2022-12-14T07:56:30.192Z,24.97
2022-12-14T07:58:59.432Z,22.73
2022-12-14T08:01:29.776Z,20.93
2022-12-14T08:03:59.844Z,23.63
2022-12-14T08:06:29.452Z,24.53
2022-12-14T08:08:59.145Z,23.67
2022-12-14T08:11:26.841Z,26.47
2022-12-14T08:13:55.105Z,25.33
2022-12-14T08:16:23.283Z,26.13
2022-12-14T08:18:52.984Z,21.77
2022-12-14T08:21:22.042Z,26.03
2022-12-14T08:23:51.010Z,22.53
2022-12-14T08:26:20.177Z,20.13
2022-12-14T08:28:48.510Z,18.10
2022-12-14T08:31:18.679Z,25.53
2022-12-14T08:33:47.576Z,23.87
2022-12-14T08:36:18.057Z,24.00
2022-12-14T08:38:45.535Z,20.27
2022-12-14T08:41:14.687Z,22.43
2022-12-14T08:43:43.098Z,20.97
2022-12-14T08:46:11.155Z,23.53
2022-12-14T08:48:38.284Z,19.57
2022-12-14T08:51:10.764Z,21.70
2022-12-14T08:53:38.814Z,25.10
2022-12-14T08:56:09.177Z,23.17
2022-12-14T08:58:38.185Z,20.40
2022-12-14T09:01:15.403Z,22.83
2022-12-14T09:03:44.852Z,23.53
2022-12-14T09:06:37.318Z,23.33
2022-12-14T09:09:08.176Z,25.93
2022-12-14T09:11:41.031Z,19.50
2022-12-14T09:14:09.692Z,20.33
2022-12-14T09:16:40.078Z,20.27
2022-12-14T09:19:16.009Z,20.47
2022-12-14T09:21:43.431Z,20.50
2022-12-14T09:24:10.499Z,20.63
2022-12-14T09:26:37.491Z,20.27
2022-12-14T09:29:04.568Z,20.17
2022-12-14T09:31:31.726Z,22.33
2022-12-14T09:34:00.528Z,20.73
2022-12-14T09:36:28.593Z,20.63
2022-12-14T09:38:57.970Z,17.37
2022-12-14T09:41:50.931Z,20.93
2022-12-14T09:44:34.059Z,22.03
2022-12-14T09:47:11.898Z,18.23
2022-12-14T09:49:47.514Z,20.10
2022-12-14T09:52:20.079Z,20.40
2022-12-14T09:54:49.704Z,22.77
2022-12-14T09:57:39.070Z,21.13
2022-12-14T10:00:15.080Z,21.00
2022-12-14T10:03:06.582Z,18.50
2022-12-14T10:05:54.988Z,18.30
2022-12-14T10:08:30.284Z,21.63
2022-12-14T10:11:07.469Z,17.00
2022-12-14T10:13:48.365Z,22.60
2022-12-14T10:16:31.631Z,19.00
2022-12-14T10:19:27.694Z,20.40
2022-12-14T10:22:03.668Z,19.27
2022-12-14T10:24:36.175Z,17.87
2022-12-14T10:27:09.408Z,21.30
2022-12-14T10:29:46.524Z,16.17
2022-12-14T10:32:22.516Z,18.80
2022-12-14T10:34:51.609Z,20.03
2022-12-14T10:37:39.198Z,22.53
2022-12-14T10:40:33.707Z,21.00
2022-12-14T10:43:43.545Z,22.83
2022-12-14T10:46:24.889Z,18.90
2022-12-14T10:49:02.428Z,21.90
2022-12-14T10:51:39.769Z,21.37
2022-12-14T10:54:22.606Z,19.57
2022-12-14T10:56:51.020Z,21.13
2022-12-14T10:59:39.839Z,21.83
2022-12-14T11:02:17.681Z,23.37
2022-12-14T11:04:51.298Z,19.40
2022-12-14T11:07:22.657Z,21.83
2022-12-14T11:09:52.284Z,19.90
2022-12-14T11:12:23.848Z,17.97
2022-12-14T11:14:58.058Z,19.70
2022-12-14T11:17:36.742Z,19.30
2022-12-14T11:20:19.209Z,24.93
2022-12-14T11:22:49.538Z,22.73
2022-12-14T11:25:37.924Z,23.20
2022-12-14T11:28:25.670Z,19.63
2022-12-14T11:31:00.975Z,23.73
2022-12-14T11:33:38.062Z,22.27
2022-12-14T11:36:09.841Z,16.33
2022-12-14T11:38:39.451Z,31.10
2022-12-14T11:41:11.811Z,16.53
2022-12-14T11:43:39.663Z,17.20
2022-12-14T11:46:07.706Z,15.20
2022-12-14T11:48:38.319Z,16.33
2022-12-14T11:51:13.912Z,14.33
2022-12-14T11:53:41.423Z,13.13
2022-12-14T11:56:16.798Z,16.02
2022-12-14T11:58:52.265Z,16.67
2022-12-14T12:01:26.702Z,14.43
2022-12-14T12:04:01.017Z,17.07
2022-12-14T12:06:30.227Z,13.20
2022-12-14T12:09:01.286Z,18.67
2022-12-14T12:11:34.863Z,16.27
2022-12-14T12:14:10.912Z,13.73
2022-12-14T12:16:44.602Z,16.87
2022-12-14T12:19:19.922Z,13.80
2022-12-14T12:21:47.422Z,15.40
2022-12-14T12:24:21.774Z,17.17
2022-12-14T12:26:55.375Z,14.00
2022-12-14T12:29:29.612Z,17.47
2022-12-14T12:32:03.639Z,14.07
2022-12-14T12:34:39.449Z,14.33
2022-12-14T12:37:31.528Z,13.83
2022-12-14T12:40:10.305Z,13.13
2022-12-14T12:42:48.373Z,16.40
2022-12-14T12:45:25.296Z,15.30
2022-12-14T12:48:02.958Z,13.73
2022-12-14T12:50:44.117Z,15.67
2022-12-14T12:53:24.391Z,30.83
2022-12-14T12:55:56.052Z,19.10
2022-12-14T12:58:29.812Z,16.50
2022-12-14T13:01:03.450Z,18.00
2022-12-14T13:03:38.801Z,18.90
2022-12-14T13:06:17.615Z,15.55
2022-12-14T13:08:50.006Z,15.10
2022-12-14T13:11:27.186Z,13.50
2022-12-14T13:14:02.907Z,14.77
2022-12-14T13:16:36.893Z,15.17
2022-12-14T13:19:48.654Z,14.37
2022-12-14T13:22:14.662Z,16.33
2022-12-14T13:24:49.553Z,15.30
2022-12-14T13:28:04.191Z,18.17
2022-12-14T13:31:02.421Z,14.97
2022-12-14T13:34:12.839Z,15.20
2022-12-14T13:37:21.190Z,15.67
2022-12-14T13:40:54.279Z,15.43
2022-12-14T13:43:43.844Z,16.53
2022-12-14T13:46:22.401Z,15.03
2022-12-14T13:48:53.966Z,17.70
2022-12-14T13:51:50.757Z,16.10
2022-12-14T13:54:30.284Z,17.77
2022-12-14T13:57:08.660Z,14.90
2022-12-14T13:59:42.463Z,14.50
2022-12-14T14:02:39.739Z,16.20
2022-12-14T14:05:43.807Z,17.17
2022-12-14T14:08:36.043Z,17.13
2022-12-14T14:11:45.111Z,16.07
2022-12-14T14:14:40.732Z,17.87
2022-12-14T14:17:17.646Z,19.57
2022-12-14T14:19:49.563Z,16.63
2022-12-14T14:22:24.329Z,15.23
2022-12-14T14:25:00.416Z,17.77
2022-12-14T14:27:36.179Z,15.97
2022-12-14T14:30:22.732Z,20.50
2022-12-14T14:33:07.493Z,16.03
2022-12-14T14:35:42.117Z,19.73
2022-12-14T14:38:24.978Z,23.17
2022-12-14T14:41:16.011Z,26.37
2022-12-14T14:43:50.582Z,22.48
2022-12-14T14:46:23.213Z,16.27
2022-12-14T14:48:55.333Z,17.17
2022-12-14T14:51:28.401Z,16.40
2022-12-14T14:55:07.066Z,15.80
2022-12-14T14:57:56.763Z,19.80
2022-12-14T15:00:24.856Z,19.50
2022-12-14T15:02:55.520Z,17.07
2022-12-14T15:05:43.895Z,21.60
2022-12-14T15:08:19.518Z,17.20
2022-12-14T15:10:48.249Z,20.87
2022-12-14T15:13:22.938Z,21.77
2022-12-14T15:15:53.431Z,19.03
2022-12-14T15:18:24.259Z,17.57
2022-12-14T15:21:00.827Z,18.67
2022-12-14T15:23:36.711Z,19.10
2022-12-14T15:26:17.134Z,16.50
2022-12-14T15:28:49.538Z,16.20
2022-12-14T15:31:18.570Z,17.63
2022-12-14T15:33:48.614Z,16.65
2022-12-14T15:36:19.854Z,17.37
2022-12-14T15:38:55.195Z,20.03
2022-12-14T15:41:25.885Z,18.57
2022-12-14T15:43:58.146Z,18.73
2022-12-14T15:46:31.652Z,17.23
2022-12-14T15:49:03.463Z,18.37
2022-12-14T15:51:36.187Z,18.80
2022-12-14T15:54:07.773Z,17.37
2022-12-14T15:56:37.893Z,22.80
2022-12-14T15:59:16.213Z,16.23
2022-12-14T16:01:54.265Z,17.97
2022-12-14T16:04:27.559Z,18.53
2022-12-14T16:07:08.120Z,17.73
2022-12-14T16:09:41.398Z,25.27
2022-12-14T16:12:18.510Z,23.70
2022-12-14T16:14:54.075Z,24.13
2022-12-14T16:17:26.374Z,22.97
2022-12-14T16:20:00.520Z,23.23
2022-12-14T16:22:31.969Z,21.73
2022-12-14T16:25:16.705Z,19.17
2022-12-14T16:27:50.179Z,19.83
2022-12-14T16:30:27.622Z,23.07
2022-12-14T16:33:14.963Z,22.33
2022-12-14T16:35:43.444Z,21.47
2022-12-14T16:38:14.873Z,21.00
2022-12-14T16:40:53.126Z,21.23
2022-12-14T16:43:29.299Z,21.87
2022-12-14T16:46:18.047Z,21.13
2022-12-14T16:49:18.965Z,21.50
2022-12-14T16:52:06.755Z,22.87
2022-12-14T16:54:36.608Z,20.57
2022-12-14T16:57:16.979Z,19.70
2022-12-14T16:59:48.551Z,25.20
2022-12-14T17:02:31.460Z,26.97
2022-12-14T17:05:02.373Z,23.03
2022-12-14T17:07:32.917Z,20.15
2022-12-14T17:10:01.582Z,26.87
2022-12-14T17:12:28.634Z,29.13
2022-12-14T17:14:55.994Z,21.43
2022-12-14T17:17:33.263Z,23.33
2022-12-14T17:20:03.962Z,24.73
2022-12-14T17:22:33.616Z,22.27
2022-12-14T17:25:02.434Z,23.87
2022-12-14T17:27:30.443Z,22.60
2022-12-14T17:29:57.612Z,21.77
2022-12-14T17:32:29.802Z,22.90
2022-12-14T17:34:57.147Z,19.27
2022-12-14T17:37:30.999Z,21.50
2022-12-14T17:40:04.708Z,19.37
2022-12-14T17:42:31.890Z,20.07
2022-12-14T17:45:00.736Z,20.70
2022-12-14T17:47:28.086Z,24.43
2022-12-14T17:49:55.479Z,23.00
2022-12-14T17:52:28.175Z,20.37
2022-12-14T17:54:55.253Z,24.97
2022-12-14T17:57:26.384Z,22.43
2022-12-14T18:00:12.312Z,23.97
2022-12-14T18:02:40.721Z,21.13
2022-12-14T18:05:18.313Z,27.73
2022-12-14T18:07:45.381Z,24.03
2022-12-14T18:10:14.372Z,21.97
2022-12-14T18:12:43.059Z,25.43
2022-12-14T18:15:18.274Z,25.07
2022-12-14T18:17:45.612Z,27.20
2022-12-14T18:20:17.623Z,25.37
2022-12-14T18:22:45.348Z,21.80
2022-12-14T18:25:31.487Z,29.27
2022-12-14T18:28:01.896Z,25.07
2022-12-14T18:30:35.063Z,26.77
2022-12-14T18:33:04.390Z,24.77
2022-12-14T18:35:34.077Z,28.27
2022-12-14T18:38:01.271Z,24.03
2022-12-14T18:40:29.874Z,25.23
2022-12-14T18:42:57.951Z,29.77
2022-12-14T18:45:29.568Z,27.07
2022-12-14T18:47:57.385Z,23.67
2022-12-14T18:50:24.926Z,23.97
2022-12-14T18:52:52.312Z,22.97
2022-12-14T18:55:22.615Z,27.70
2022-12-14T18:57:52.864Z,29.00
2022-12-14T19:00:22.972Z,28.23
2022-12-14T19:02:52.990Z,26.30
2022-12-14T19:05:25.917Z,25.53
2022-12-14T19:07:54.412Z,24.60
2022-12-14T19:10:24.630Z,27.97
2022-12-14T19:12:52.584Z,26.00
2022-12-14T19:15:23.059Z,29.00
2022-12-14T19:17:52.539Z,27.27
2022-12-14T19:20:23.138Z,25.80
2022-12-14T19:22:51.374Z,25.17
2022-12-14T19:25:20.824Z,24.83
2022-12-14T19:30:39.920Z,27.00
2022-12-14T19:33:11.089Z,22.00
2022-12-14T19:35:40.713Z,26.40
2022-12-14T19:38:14.366Z,26.83
2022-12-14T19:40:42.091Z,27.77
2022-12-14T19:43:09.126Z,26.57
2022-12-14T19:45:39.381Z,21.47
2022-12-14T19:48:12.967Z,23.80
2022-12-14T19:50:40.854Z,24.17
2022-12-14T19:53:07.821Z,23.03
2022-12-14T19:55:35.671Z,27.47
2022-12-14T19:58:03.002Z,27.77
2022-12-14T20:00:30.861Z,24.27
2022-12-14T20:02:57.986Z,22.90
2022-12-14T20:05:26.406Z,26.73
2022-12-14T20:07:53.825Z,23.03
2022-12-14T20:10:21.057Z,26.63
2022-12-14T20:12:48.292Z,27.90
2022-12-14T20:15:15.304Z,27.00
2022-12-14T20:17:42.563Z,24.87
2022-12-14T20:20:12.038Z,24.07
2022-12-14T20:22:40.807Z,22.53
2022-12-14T20:25:09.068Z,22.93
2022-12-14T20:27:40.528Z,25.93
2022-12-14T20:30:10.625Z,22.10
2022-12-14T20:32:37.677Z,26.77
2022-12-14T20:35:07.403Z,24.93
2022-12-14T20:37:34.316Z,19.33
2022-12-14T20:40:04.122Z,23.20
2022-12-14T20:42:31.342Z,22.50
2022-12-14T20:45:01.365Z,23.10
2022-12-14T20:47:32.426Z,24.30
2022-12-14T20:49:59.374Z,24.77
2022-12-14T20:52:26.312Z,25.43
2022-12-14T20:54:54.620Z,21.40
2022-12-14T20:57:23.276Z,23.37
2022-12-14T20:59:50.199Z,22.03
2022-12-14T21:02:20.491Z,22.10
2022-12-14T21:04:47.833Z,23.33
2022-12-14T21:07:15.169Z,22.20
2022-12-14T21:09:42.170Z,21.10
2022-12-14T21:12:22.156Z,20.87
2022-12-14T21:14:54.677Z,23.53
2022-12-14T21:17:25.171Z,22.00
2022-12-14T21:19:52.519Z,20.60
2022-12-14T21:22:23.311Z,22.40
2022-12-14T21:25:07.330Z,19.50
2022-12-14T21:27:38.671Z,26.60
2022-12-14T21:30:11.233Z,18.43
2022-12-14T21:32:39.267Z,17.43
2022-12-14T21:35:07.547Z,19.93
2022-12-14T21:37:36.702Z,20.97
2022-12-14T21:40:05.241Z,20.57
2022-12-14T21:42:32.165Z,20.53
2022-12-14T21:44:59.219Z,17.97
2022-12-14T21:47:29.767Z,20.33
2022-12-14T21:49:57.182Z,18.10
2022-12-14T21:52:27.420Z,18.33
2022-12-14T21:54:54.767Z,22.57
2022-12-14T21:57:42.667Z,21.43
2022-12-14T22:00:11.413Z,21.57
2022-12-14T22:02:41.812Z,20.50
2022-12-14T22:05:09.672Z,16.90
2022-12-14T22:07:36.764Z,20.70
2022-12-14T22:10:05.374Z,19.73
2022-12-14T22:12:32.495Z,19.90
2022-12-14T22:14:59.615Z,20.63
2022-12-14T22:17:26.639Z,20.43
2022-12-14T22:19:55.157Z,19.10
2022-12-14T22:22:23.086Z,20.33
2022-12-14T22:24:51.137Z,24.27
2022-12-14T22:27:19.592Z,18.27
2022-12-14T22:29:46.775Z,21.47
2022-12-14T22:32:14.780Z,18.77
2022-12-14T22:34:42.179Z,19.00
2022-12-14T22:37:14.134Z,20.27
2022-12-14T22:39:41.080Z,20.40
2022-12-14T22:42:08.065Z,21.73
2022-12-14T22:44:34.992Z,19.70
2022-12-14T22:47:01.938Z,21.10
2022-12-14T22:49:28.898Z,22.37
2022-12-14T22:51:56.384Z,19.87
2022-12-14T22:54:27.707Z,18.67
2022-12-14T22:57:00.173Z,21.33
2022-12-14T22:59:36.201Z,17.80
2022-12-14T23:02:04.238Z,18.90
2022-12-14T23:04:31.781Z,21.03
2022-12-14T23:06:58.974Z,17.77
2022-12-14T23:09:45.842Z,19.87
2022-12-14T23:12:31.325Z,23.07
2022-12-14T23:15:18.034Z,22.57
2022-12-14T23:18:03.921Z,19.07
2022-12-14T23:20:49.473Z,18.63
2022-12-14T23:23:35.548Z,18.13
2022-12-14T23:26:23.578Z,17.30
2022-12-14T23:29:09.463Z,20.30
2022-12-14T23:31:55.148Z,18.90
2022-12-14T23:34:40.630Z,19.90
2022-12-14T23:37:26.501Z,19.00
2022-12-14T23:40:12.162Z,19.87
2022-12-14T23:42:58.836Z,19.80
2022-12-14T23:45:44.359Z,18.80
2022-12-14T23:48:30.236Z,18.60
2022-12-14T23:51:15.722Z,17.50
2022-12-14T23:54:01.262Z,20.60
2022-12-14T23:56:46.722Z,19.67
2022-12-14T23:59:33.537Z,23.60
